Time;durP1;ratioP1;P1;durP2;ratioP2;P2;SDS_P1;SDS_P2;PMS_P1;PMS_P2;Temp;Humidity;BMP_temperature;BMP_pressure;BME280_temperature;BME280_humidity;BME280_pressure;Samples;Min_cycle;Max_cycle;Signal;HPM_P1;HPM_P2
2023/06/15 00:01:44;;;;;;;7.85;2.62;;;;;;;;;;4330165;33;20055;-68
2023/06/15 00:04:09;;;;;;;5.15;2.60;;;;;;;;;;4331540;33;20035;-69
2023/06/15 00:06:34;;;;;;;5.47;2.70;;;;;;;;;;4332056;33;20482;-68
2023/06/15 00:09:00;;;;;;;7.93;3.10;;;;;;;;;;4332596;33;20036;-67
2023/06/15 00:11:25;;;;;;;4.45;3.00;;;;;;;;;;4331758;33;20040;-68
2023/06/15 00:13:51;;;;;;;6.40;2.60;;;;;;;;;;4330916;33;20036;-68
2023/06/15 00:16:18;;;;;;;4.37;2.72;;;;;;;;;;4334587;33;20031;-68
2023/06/15 00:18:47;;;;;;;3.95;2.60;;;;;;;;;;4343093;33;20024;-69
2023/06/15 00:21:13;;;;;;;6.60;2.70;;;;;;;;;;4344603;33;20429;-69
2023/06/15 00:23:39;;;;;;;5.55;2.87;;;;;;;;;;4344641;33;20070;-67
2023/06/15 00:26:05;;;;;;;4.78;2.97;;;;;;;;;;4345666;33;20067;-69
2023/06/15 00:28:30;;;;;;;3.85;2.40;;;;;;;;;;4347270;33;20031;-69
2023/06/15 00:30:55;;;;;;;5.70;3.03;;;;;;;;;;4345604;33;20031;-68
2023/06/15 00:33:20;;;;;;;10.52;3.40;;;;;;;;;;4343802;33;20140;-68
2023/06/15 00:35:45;;;;;;;7.25;3.00;;;;;;;;;;4344063;33;20122;-68
2023/06/15 00:38:11;;;;;;;5.67;2.90;;;;;;;;;;4345938;33;20036;-69
2023/06/15 00:40:39;;;;;;;5.62;2.50;;;;;;;;;;4346016;33;20136;-69
2023/06/15 00:43:04;;;;;;;5.50;3.12;;;;;;;;;;4346348;33;20031;-69
2023/06/15 00:45:29;;;;;;;3.95;3.00;;;;;;;;;;4346536;33;20028;-67
2023/06/15 00:47:55;;;;;;;5.15;2.90;;;;;;;;;;4346572;33;20375;-68
2023/06/15 00:50:20;;;;;;;7.57;3.20;;;;;;;;;;4346908;33;20031;-68
2023/06/15 00:52:46;;;;;;;7.65;3.35;;;;;;;;;;4346575;33;20054;-68
2023/06/15 00:55:13;;;;;;;9.18;3.05;;;;;;;;;;4343804;33;20058;-69
2023/06/15 00:57:44;;;;;;;4.00;3.22;;;;;;;;;;4342411;33;20047;-68
2023/06/15 01:00:11;;;;;;;8.32;3.08;;;;;;;;;;4344800;33;20028;-69
2023/06/15 01:02:38;;;;;;;9.32;3.72;;;;;;;;;;4343729;33;20062;-68
2023/06/15 01:05:03;;;;;;;7.90;3.47;;;;;;;;;;4345398;33;20461;-68
2023/06/15 01:07:29;;;;;;;8.15;3.90;;;;;;;;;;4348406;33;20027;-69
2023/06/15 01:09:55;;;;;;;4.68;3.60;;;;;;;;;;4346262;33;20098;-68
2023/06/15 01:12:21;;;;;;;3.95;2.90;;;;;;;;;;4345498;33;20040;-68
2023/06/15 01:14:46;;;;;;;7.47;3.60;;;;;;;;;;4345017;33;20032;-68
2023/06/15 01:17:15;;;;;;;6.87;3.50;;;;;;;;;;4345210;33;20432;-68
2023/06/15 01:19:57;;;;;;;5.37;3.47;;;;;;;;;;4345645;33;20099;-68
2023/06/15 01:22:41;;;;;;;6.40;3.58;;;;;;;;;;4345691;33;20413;-68
2023/06/15 01:25:15;;;;;;;6.57;3.30;;;;;;;;;;4345820;33;20043;-67
2023/06/15 01:27:41;;;;;;;6.75;3.33;;;;;;;;;;4345133;33;20035;-69
2023/06/15 01:30:07;;;;;;;7.68;3.25;;;;;;;;;;4346264;33;20106;-68
2023/06/15 01:32:33;;;;;;;6.18;3.45;;;;;;;;;;4344683;33;20090;-68
2023/06/15 01:34:59;;;;;;;8.32;3.47;;;;;;;;;;4346699;33;20047;-68
2023/06/15 01:37:24;;;;;;;8.50;3.78;;;;;;;;;;4344706;33;20036;-68
2023/06/15 01:39:49;;;;;;;5.07;3.80;;;;;;;;;;4346565;33;20086;-68
2023/06/15 01:42:15;;;;;;;5.53;3.50;;;;;;;;;;4343948;33;20166;-69
2023/06/15 01:44:40;;;;;;;4.68;3.78;;;;;;;;;;4344976;33;20027;-69
2023/06/15 01:47:06;;;;;;;6.90;4.37;;;;;;;;;;4346240;33;20101;-68
2023/06/15 01:49:31;;;;;;;6.47;3.95;;;;;;;;;;4345087;33;20074;-68
2023/06/15 01:51:56;;;;;;;7.28;3.60;;;;;;;;;;4344120;33;20031;-69
2023/06/15 01:54:22;;;;;;;7.33;3.97;;;;;;;;;;4344275;33;20036;-67
2023/06/15 01:56:47;;;;;;;6.95;4.20;;;;;;;;;;4344924;33;20608;-69
2023/06/15 01:59:12;;;;;;;7.20;4.20;;;;;;;;;;4346583;33;20089;-69
2023/06/15 02:01:37;;;;;;;5.22;4.18;;;;;;;;;;4347488;33;20151;-69
2023/06/15 02:04:02;;;;;;;6.07;3.80;;;;;;;;;;4347558;33;20050;-68
2023/06/15 02:06:28;;;;;;;4.10;3.30;;;;;;;;;;4348250;33;20159;-68
2023/06/15 02:08:53;;;;;;;6.22;4.18;;;;;;;;;;4347868;33;20050;-69
2023/06/15 02:11:18;;;;;;;11.23;4.50;;;;;;;;;;4349591;33;20027;-69
2023/06/15 02:13:44;;;;;;;7.50;3.65;;;;;;;;;;4361771;32;20035;-68
2023/06/15 02:16:09;;;;;;;8.90;4.15;;;;;;;;;;4363464;32;20065;-68
2023/06/15 02:18:34;;;;;;;5.05;3.40;;;;;;;;;;4362695;32;20039;-68
2023/06/15 02:20:59;;;;;;;7.43;4.18;;;;;;;;;;4362036;32;20058;-68
2023/06/15 02:23:25;;;;;;;7.30;3.97;;;;;;;;;;4363798;32;20043;-68
2023/06/15 02:25:50;;;;;;;10.07;4.07;;;;;;;;;;4363125;32;20159;-68
2023/06/15 02:28:15;;;;;;;7.95;4.07;;;;;;;;;;4362605;32;20054;-68
2023/06/15 02:30:41;;;;;;;6.30;4.15;;;;;;;;;;4363532;32;20090;-68
2023/06/15 02:33:07;;;;;;;7.22;4.03;;;;;;;;;;4361293;32;20057;-68
2023/06/15 02:35:32;;;;;;;6.95;4.43;;;;;;;;;;4335447;32;20114;-69
2023/06/15 02:37:57;;;;;;;6.07;4.30;;;;;;;;;;4332880;33;20075;-69
2023/06/15 02:40:23;;;;;;;7.32;4.07;;;;;;;;;;4339178;33;20442;-69
2023/06/15 02:42:48;;;;;;;7.47;4.57;;;;;;;;;;4342361;33;20093;-69
2023/06/15 02:45:13;;;;;;;9.90;4.20;;;;;;;;;;4344492;32;20058;-68
2023/06/15 02:47:38;;;;;;;9.52;4.28;;;;;;;;;;4343676;33;20066;-67
2023/06/15 02:50:04;;;;;;;5.40;4.00;;;;;;;;;;4347875;32;20044;-69
2023/06/15 02:52:32;;;;;;;10.75;4.60;;;;;;;;;;4348879;33;20106;-68
2023/06/15 02:54:57;;;;;;;8.43;4.18;;;;;;;;;;4348095;33;20091;-69
2023/06/15 02:57:23;;;;;;;6.40;4.50;;;;;;;;;;4347286;33;20364;-69
2023/06/15 02:59:49;;;;;;;7.15;4.32;;;;;;;;;;4347083;33;20036;-69
2023/06/15 03:02:14;;;;;;;7.22;4.28;;;;;;;;;;4345389;33;20035;-68
2023/06/15 03:04:47;;;;;;;5.18;4.15;;;;;;;;;;4347998;33;20028;-68
2023/06/15 03:07:20;;;;;;;7.75;4.20;;;;;;;;;;4348433;33;20028;-69
2023/06/15 03:09:49;;;;;;;6.53;4.97;;;;;;;;;;4346068;33;20024;-69
2023/06/15 03:12:15;;;;;;;5.75;4.68;;;;;;;;;;4348072;33;20103;-69
2023/06/15 03:14:44;;;;;;;6.10;4.25;;;;;;;;;;4348232;33;20090;-68
2023/06/15 03:17:10;;;;;;;13.27;5.15;;;;;;;;;;4346968;33;20387;-68
2023/06/15 03:19:35;;;;;;;7.15;4.57;;;;;;;;;;4348210;33;20031;-69
2023/06/15 03:22:01;;;;;;;7.22;4.37;;;;;;;;;;4336285;33;20413;-68
2023/06/15 03:24:26;;;;;;;7.93;4.00;;;;;;;;;;4332747;33;20036;-69
2023/06/15 03:26:56;;;;;;;7.57;4.50;;;;;;;;;;4332682;33;20437;-69
2023/06/15 03:29:27;;;;;;;8.30;4.62;;;;;;;;;;4332767;33;20036;-68
2023/06/15 03:31:52;;;;;;;9.02;5.45;;;;;;;;;;4332587;33;20087;-67
2023/06/15 03:34:17;;;;;;;6.10;4.40;;;;;;;;;;4332220;33;20350;-69
2023/06/15 03:36:43;;;;;;;8.95;4.50;;;;;;;;;;4344044;33;20035;-68
2023/06/15 03:39:09;;;;;;;8.50;5.25;;;;;;;;;;4345976;32;20075;-69
2023/06/15 03:41:37;;;;;;;9.15;4.60;;;;;;;;;;4344842;33;20059;-69
2023/06/15 03:44:02;;;;;;;9.65;5.07;;;;;;;;;;4346159;32;20031;-68
2023/06/15 03:46:27;;;;;;;13.98;4.97;;;;;;;;;;4346085;33;20436;-68
2023/06/15 03:48:52;;;;;;;9.45;5.25;;;;;;;;;;4347687;33;20102;-70
2023/06/15 03:51:17;;;;;;;10.85;4.62;;;;;;;;;;4347317;32;20183;-69
2023/06/15 03:53:43;;;;;;;11.13;5.63;;;;;;;;;;4346412;33;20058;-69
2023/06/15 03:56:08;;;;;;;9.32;5.05;;;;;;;;;;4345017;33;20163;-68
2023/06/15 03:58:33;;;;;;;10.13;4.70;;;;;;;;;;4346657;32;20036;-68
2023/06/15 04:00:59;;;;;;;9.23;5.10;;;;;;;;;;4344191;33;20066;-69
2023/06/15 04:03:26;;;;;;;12.98;5.30;;;;;;;;;;4345974;33;20429;-68
2023/06/15 04:05:51;;;;;;;6.93;5.22;;;;;;;;;;4341639;33;20043;-68
2023/06/15 04:08:16;;;;;;;8.17;5.50;;;;;;;;;;4343925;33;20126;-68
2023/06/15 04:10:41;;;;;;;8.97;5.20;;;;;;;;;;4345750;33;20210;-68
2023/06/15 04:13:07;;;;;;;9.82;5.07;;;;;;;;;;4344964;33;20129;-67
2023/06/15 04:15:32;;;;;;;6.03;4.90;;;;;;;;;;4345007;33;20031;-68
2023/06/15 04:18:00;;;;;;;9.23;4.82;;;;;;;;;;4346845;32;20152;-69
2023/06/15 04:20:27;;;;;;;11.20;5.62;;;;;;;;;;4344741;32;20359;-68
2023/06/15 04:22:52;;;;;;;12.45;5.90;;;;;;;;;;4345471;33;20040;-68
2023/06/15 04:25:18;;;;;;;11.57;4.47;;;;;;;;;;4346860;33;20101;-68
2023/06/15 04:27:44;;;;;;;10.52;5.12;;;;;;;;;;4345960;33;20524;-68
2023/06/15 04:30:10;;;;;;;8.55;5.22;;;;;;;;;;4345692;33;20036;-68
2023/06/15 04:32:35;;;;;;;14.63;6.07;;;;;;;;;;4342326;33;20073;-68
2023/06/15 04:35:01;;;;;;;9.27;5.45;;;;;;;;;;4330874;33;20039;-67
2023/06/15 04:37:28;;;;;;;7.75;4.97;;;;;;;;;;4330231;33;20059;-68
2023/06/15 04:39:56;;;;;;;14.10;5.65;;;;;;;;;;4342444;32;20167;-70
2023/06/15 04:42:21;;;;;;;7.75;6.03;;;;;;;;;;4343820;33;20031;-70
2023/06/15 04:44:46;;;;;;;7.07;4.87;;;;;;;;;;4343771;33;20397;-68
2023/06/15 04:47:11;;;;;;;8.18;5.32;;;;;;;;;;4343166;33;20490;-69
2023/06/15 04:49:36;;;;;;;10.83;4.67;;;;;;;;;;4344708;33;20118;-69
2023/06/15 04:52:02;;;;;;;11.30;5.72;;;;;;;;;;4345424;33;20154;-68
2023/06/15 04:54:27;;;;;;;11.20;5.53;;;;;;;;;;4344969;33;20126;-68
2023/06/15 04:56:52;;;;;;;7.60;4.77;;;;;;;;;;4345931;33;20062;-68
2023/06/15 04:59:17;;;;;;;8.02;5.18;;;;;;;;;;4345313;33;20171;-68
2023/06/15 05:01:43;;;;;;;7.90;5.40;;;;;;;;;;4342670;33;20031;-68
2023/06/15 05:04:08;;;;;;;9.35;5.90;;;;;;;;;;4346592;33;20067;-69
2023/06/15 05:06:33;;;;;;;8.37;6.10;;;;;;;;;;4346634;33;20032;-68
2023/06/15 05:08:58;;;;;;;8.18;5.45;;;;;;;;;;4345584;33;20418;-69
2023/06/15 05:11:23;;;;;;;8.23;5.40;;;;;;;;;;4345580;33;20028;-68
2023/06/15 05:13:49;;;;;;;8.88;5.68;;;;;;;;;;4346207;33;20150;-69
2023/06/15 05:16:14;;;;;;;8.90;5.72;;;;;;;;;;4345941;33;20090;-68
2023/06/15 05:18:39;;;;;;;12.98;5.75;;;;;;;;;;4352692;33;20070;-68
2023/06/15 05:21:05;;;;;;;8.73;5.60;;;;;;;;;;4359856;32;20471;-69
2023/06/15 05:23:30;;;;;;;12.93;5.97;;;;;;;;;;4357145;32;20035;-70
2023/06/15 05:25:55;;;;;;;10.45;5.18;;;;;;;;;;4344839;33;20086;-68
2023/06/15 05:28:21;;;;;;;6.95;5.15;;;;;;;;;;4343953;33;20421;-68
2023/06/15 05:30:46;;;;;;;9.30;5.35;;;;;;;;;;4346094;33;20156;-68
2023/06/15 05:33:11;;;;;;;15.13;5.68;;;;;;;;;;4346761;33;20066;-68
2023/06/15 05:35:36;;;;;;;6.65;5.15;;;;;;;;;;4347779;33;20070;-68
2023/06/15 05:38:01;;;;;;;11.03;5.77;;;;;;;;;;4347189;33;20048;-69
2023/06/15 05:40:27;;;;;;;7.87;4.82;;;;;;;;;;4347017;33;20125;-70
2023/06/15 05:42:52;;;;;;;11.27;5.75;;;;;;;;;;4346736;33;20065;-69
2023/06/15 05:45:17;;;;;;;14.75;5.37;;;;;;;;;;4348549;32;20062;-69
2023/06/15 05:47:42;;;;;;;12.80;6.07;;;;;;;;;;4355328;33;20035;-69
2023/06/15 05:50:08;;;;;;;13.23;6.50;;;;;;;;;;4361482;32;20063;-69
2023/06/15 05:52:33;;;;;;;13.32;6.87;;;;;;;;;;4362045;32;20409;-69
2023/06/15 05:54:58;;;;;;;10.63;5.75;;;;;;;;;;4362453;32;20051;-68
2023/06/15 05:57:23;;;;;;;12.00;6.10;;;;;;;;;;4361002;32;20081;-70
2023/06/15 05:59:48;;;;;;;13.47;6.17;;;;;;;;;;4347588;33;20155;-69
2023/06/15 06:02:14;;;;;;;14.20;6.32;;;;;;;;;;4342511;33;20185;-68
2023/06/15 06:04:39;;;;;;;14.70;6.65;;;;;;;;;;4348845;32;20032;-70
2023/06/15 06:07:05;;;;;;;14.55;5.97;;;;;;;;;;4346168;32;20031;-68
2023/06/15 06:09:31;;;;;;;13.40;5.70;;;;;;;;;;4346119;32;20067;-69
2023/06/15 06:11:56;;;;;;;6.25;5.55;;;;;;;;;;4347472;33;20062;-70
2023/06/15 06:14:21;;;;;;;10.82;6.15;;;;;;;;;;4335208;33;20410;-69
2023/06/15 06:16:47;;;;;;;19.15;6.18;;;;;;;;;;4346637;33;20095;-69
2023/06/15 06:19:12;;;;;;;9.17;6.13;;;;;;;;;;4347043;33;20032;-69
2023/06/15 06:21:37;;;;;;;17.15;6.30;;;;;;;;;;4347818;33;20163;-69
2023/06/15 06:24:02;;;;;;;11.50;6.07;;;;;;;;;;4346895;33;20032;-69
2023/06/15 06:26:28;;;;;;;13.88;7.25;;;;;;;;;;4345465;33;20225;-70
2023/06/15 06:28:53;;;;;;;10.73;5.80;;;;;;;;;;4346672;33;20050;-69
2023/06/15 06:31:18;;;;;;;12.32;6.00;;;;;;;;;;4345005;33;20085;-70
2023/06/15 06:33:43;;;;;;;10.93;6.33;;;;;;;;;;4345468;33;20032;-70
2023/06/15 06:36:09;;;;;;;21.08;7.25;;;;;;;;;;4346091;33;20578;-69
2023/06/15 06:38:34;;;;;;;13.90;6.30;;;;;;;;;;4342454;33;20389;-69
2023/06/15 06:41:00;;;;;;;11.40;6.07;;;;;;;;;;4343288;33;20047;-69
2023/06/15 06:43:25;;;;;;;11.50;6.20;;;;;;;;;;4345156;33;20031;-71
2023/06/15 06:45:51;;;;;;;15.00;6.15;;;;;;;;;;4345472;32;20047;-69
2023/06/15 06:48:16;;;;;;;12.43;7.03;;;;;;;;;;4340527;33;20461;-69
2023/06/15 06:50:42;;;;;;;10.97;6.07;;;;;;;;;;4341458;33;20463;-69
2023/06/15 06:53:07;;;;;;;9.82;6.43;;;;;;;;;;4346040;33;20132;-70
2023/06/15 06:55:32;;;;;;;13.48;6.68;;;;;;;;;;4345000;33;20036;-69
2023/06/15 06:58:00;;;;;;;11.45;5.78;;;;;;;;;;4347500;33;20083;-69
2023/06/15 07:00:25;;;;;;;10.38;6.70;;;;;;;;;;4353171;32;20055;-70
2023/06/15 07:02:50;;;;;;;9.50;7.07;;;;;;;;;;4349527;32;20058;-69
2023/06/15 07:05:16;;;;;;;11.82;6.53;;;;;;;;;;4358337;32;20082;-69
2023/06/15 07:07:41;;;;;;;13.57;6.82;;;;;;;;;;4359182;32;20054;-68
2023/06/15 07:10:06;;;;;;;13.10;6.95;;;;;;;;;;4360202;32;20429;-69
2023/06/15 07:12:32;;;;;;;10.43;7.18;;;;;;;;;;4349120;32;20462;-69
2023/06/15 07:14:57;;;;;;;11.88;6.43;;;;;;;;;;4345573;33;20098;-70
2023/06/15 07:17:22;;;;;;;11.02;5.93;;;;;;;;;;4346962;32;20044;-69
2023/06/15 07:19:47;;;;;;;8.93;6.53;;;;;;;;;;4347639;32;20095;-69
2023/06/15 07:22:12;;;;;;;8.55;5.57;;;;;;;;;;4345706;33;20045;-68
2023/06/15 07:24:38;;;;;;;10.10;5.75;;;;;;;;;;4347259;33;20035;-70
2023/06/15 07:27:03;;;;;;;12.57;6.35;;;;;;;;;;4346606;33;20089;-70
2023/06/15 07:29:28;;;;;;;12.73;6.12;;;;;;;;;;4344644;33;20101;-69
2023/06/15 07:31:53;;;;;;;17.27;7.53;;;;;;;;;;4346710;33;20039;-69
2023/06/15 07:34:18;;;;;;;10.33;6.13;;;;;;;;;;4344709;33;20166;-70
2023/06/15 07:36:44;;;;;;;16.53;6.03;;;;;;;;;;4345939;32;20200;-69
2023/06/15 07:39:10;;;;;;;8.38;6.47;;;;;;;;;;4349515;32;20190;-69
2023/06/15 07:41:35;;;;;;;8.15;5.93;;;;;;;;;;4356523;32;20043;-69
2023/06/15 07:44:00;;;;;;;14.07;6.07;;;;;;;;;;4345677;32;20058;-70
2023/06/15 07:46:25;;;;;;;10.50;6.00;;;;;;;;;;4348653;32;20171;-69
2023/06/15 07:48:50;;;;;;;13.98;6.50;;;;;;;;;;4346949;33;20077;-70
2023/06/15 07:51:16;;;;;;;10.73;5.30;;;;;;;;;;4357193;33;20027;-69
2023/06/15 07:53:41;;;;;;;7.68;5.82;;;;;;;;;;4358916;32;20154;-68
2023/06/15 07:56:06;;;;;;;9.73;5.65;;;;;;;;;;4346792;32;20066;-70
2023/06/15 07:58:31;;;;;;;12.17;5.10;;;;;;;;;;4345688;32;20085;-70
2023/06/15 08:00:56;;;;;;;10.10;5.00;;;;;;;;;;4344594;33;20132;-70
2023/06/15 08:03:22;;;;;;;10.03;5.47;;;;;;;;;;4343552;33;20036;-69
2023/06/15 08:05:47;;;;;;;10.52;5.60;;;;;;;;;;4347010;32;20466;-70
2023/06/15 08:08:12;;;;;;;9.57;5.37;;;;;;;;;;4348536;32;20039;-69
2023/06/15 08:10:37;;;;;;;10.47;5.73;;;;;;;;;;4348214;32;20090;-69
2023/06/15 08:13:03;;;;;;;12.85;5.85;;;;;;;;;;4346202;32;20195;-69
2023/06/15 08:15:28;;;;;;;7.28;5.03;;;;;;;;;;4351551;33;20134;-70
2023/06/15 08:17:53;;;;;;;10.37;5.47;;;;;;;;;;4351082;32;20043;-71
2023/06/15 08:20:19;;;;;;;7.82;4.53;;;;;;;;;;4345027;33;20132;-69
2023/06/15 08:22:44;;;;;;;7.30;4.28;;;;;;;;;;4344992;33;20036;-70
2023/06/15 08:25:12;;;;;;;10.02;4.37;;;;;;;;;;4344658;33;20043;-69
2023/06/15 08:27:38;;;;;;;10.75;4.65;;;;;;;;;;4346037;32;20089;-69
2023/06/15 08:30:03;;;;;;;9.75;4.97;;;;;;;;;;4344476;33;20382;-69
2023/06/15 08:32:29;;;;;;;11.90;4.47;;;;;;;;;;4344824;32;20088;-70
2023/06/15 08:34:55;;;;;;;8.57;5.45;;;;;;;;;;4346877;33;20091;-70
2023/06/15 08:37:20;;;;;;;8.98;4.65;;;;;;;;;;4357223;32;20048;-69
2023/06/15 08:39:45;;;;;;;10.70;5.28;;;;;;;;;;4346554;33;20044;-69
2023/06/15 08:42:10;;;;;;;9.95;4.95;;;;;;;;;;4360573;32;20121;-69
2023/06/15 08:44:36;;;;;;;9.85;5.43;;;;;;;;;;4361450;32;20035;-69
2023/06/15 08:47:03;;;;;;;7.05;5.07;;;;;;;;;;4358415;33;20027;-70
2023/06/15 08:49:30;;;;;;;17.08;6.32;;;;;;;;;;4360123;32;20563;-69
2023/06/15 08:51:56;;;;;;;12.07;5.45;;;;;;;;;;4360072;32;20035;-69
2023/06/15 08:54:22;;;;;;;9.63;5.72;;;;;;;;;;4360071;32;20341;-69
2023/06/15 08:56:47;;;;;;;10.85;5.85;;;;;;;;;;4359598;33;20364;-68
2023/06/15 08:59:12;;;;;;;8.32;4.55;;;;;;;;;;4359862;32;20036;-69
2023/06/15 09:01:43;;;;;;;10.67;4.83;;;;;;;;;;4359706;32;20058;-68
2023/06/15 09:04:08;;;;;;;8.25;4.47;;;;;;;;;;4360100;33;20505;-69
2023/06/15 09:06:33;;;;;;;6.18;4.65;;;;;;;;;;4360450;32;20049;-69
2023/06/15 09:08:59;;;;;;;8.47;4.93;;;;;;;;;;4345881;32;20426;-70
2023/06/15 09:11:24;;;;;;;6.70;4.95;;;;;;;;;;4348116;32;20140;-68
2023/06/15 09:13:50;;;;;;;8.02;5.03;;;;;;;;;;4348748;33;20439;-69
2023/06/15 09:16:15;;;;;;;9.95;5.47;;;;;;;;;;4349028;33;20043;-69
2023/06/15 09:18:41;;;;;;;9.13;5.90;;;;;;;;;;4346406;33;20099;-69
2023/06/15 09:21:10;;;;;;;8.40;5.32;;;;;;;;;;4347746;32;20103;-69
2023/06/15 09:23:35;;;;;;;9.90;4.87;;;;;;;;;;4347778;33;20073;-68
2023/06/15 09:26:00;;;;;;;9.82;5.55;;;;;;;;;;4347515;32;20047;-68
2023/06/15 09:28:29;;;;;;;10.13;4.62;;;;;;;;;;4347799;33;20086;-69
2023/06/15 09:30:59;;;;;;;10.63;5.30;;;;;;;;;;4344424;33;20070;-69
2023/06/15 09:33:25;;;;;;;9.38;6.03;;;;;;;;;;4339589;33;20028;-69
2023/06/15 09:36:06;;;;;;;10.60;5.30;;;;;;;;;;4342877;33;20031;-69
2023/06/15 09:38:33;;;;;;;12.18;5.85;;;;;;;;;;4345820;33;20040;-69
2023/06/15 09:41:01;;;;;;;9.45;4.50;;;;;;;;;;4346199;33;20040;-69
2023/06/15 09:43:33;;;;;;;11.60;5.57;;;;;;;;;;4347029;33;20414;-69
2023/06/15 09:45:58;;;;;;;11.32;5.95;;;;;;;;;;4347135;33;20066;-68
2023/06/15 09:48:24;;;;;;;10.38;5.10;;;;;;;;;;4346801;33;20088;-70
2023/06/15 09:50:52;;;;;;;8.25;4.40;;;;;;;;;;4346138;33;20058;-69
2023/06/15 09:53:18;;;;;;;6.93;4.55;;;;;;;;;;4345913;33;20118;-68
2023/06/15 09:55:45;;;;;;;6.80;4.87;;;;;;;;;;4334271;33;20051;-70
2023/06/15 09:58:10;;;;;;;9.35;5.32;;;;;;;;;;4332980;33;20096;-69
2023/06/15 10:00:36;;;;;;;11.43;4.93;;;;;;;;;;4334578;33;20066;-68
2023/06/15 10:03:01;;;;;;;8.20;3.97;;;;;;;;;;4348703;33;20031;-69
2023/06/15 10:05:30;;;;;;;7.95;4.37;;;;;;;;;;4345056;32;20031;-70
2023/06/15 10:07:55;;;;;;;11.25;4.78;;;;;;;;;;4345843;33;20087;-69
2023/06/15 10:10:21;;;;;;;5.35;3.45;;;;;;;;;;4344183;33;20491;-69
2023/06/15 10:12:49;;;;;;;9.60;4.68;;;;;;;;;;4342800;32;20086;-69
2023/06/15 10:15:15;;;;;;;6.10;4.30;;;;;;;;;;4345784;33;20417;-69
2023/06/15 10:17:42;;;;;;;6.95;3.85;;;;;;;;;;4345558;33;20032;-69
2023/06/15 10:20:17;;;;;;;11.43;3.95;;;;;;;;;;4343558;33;20426;-70
2023/06/15 10:22:54;;;;;;;11.23;3.85;;;;;;;;;;4346524;33;20430;-69
2023/06/15 10:25:20;;;;;;;6.60;3.90;;;;;;;;;;4344705;33;20109;-69
2023/06/15 10:27:45;;;;;;;7.85;3.55;;;;;;;;;;4346208;33;20091;-69
2023/06/15 10:30:14;;;;;;;6.10;3.67;;;;;;;;;;4347914;33;20031;-69
2023/06/15 10:32:44;;;;;;;7.68;3.90;;;;;;;;;;4347833;32;20075;-69
2023/06/15 10:35:12;;;;;;;9.82;4.62;;;;;;;;;;4348447;33;20056;-70
2023/06/15 10:37:48;;;;;;;7.50;3.37;;;;;;;;;;4346766;33;20543;-69
2023/06/15 10:40:32;;;;;;;10.38;4.00;;;;;;;;;;4344034;33;20495;-69
2023/06/15 10:42:59;;;;;;;7.82;3.80;;;;;;;;;;4354039;32;20035;-70
2023/06/15 10:45:25;;;;;;;5.15;3.60;;;;;;;;;;4347694;32;20111;-70
2023/06/15 10:47:50;;;;;;;7.25;4.07;;;;;;;;;;4345864;33;20024;-69
2023/06/15 10:50:16;;;;;;;5.45;3.97;;;;;;;;;;4346402;32;20086;-70
2023/06/15 10:52:41;;;;;;;10.27;3.58;;;;;;;;;;4345200;33;20027;-70
2023/06/15 10:55:14;;;;;;;8.13;3.25;;;;;;;;;;4345524;33;20117;-69
2023/06/15 10:57:39;;;;;;;7.87;4.25;;;;;;;;;;4347326;33;20113;-70
2023/06/15 11:00:06;;;;;;;6.80;4.18;;;;;;;;;;4345977;33;20040;-69
2023/06/15 11:02:32;;;;;;;6.40;3.78;;;;;;;;;;4346580;33;20119;-69
2023/06/15 11:05:01;;;;;;;5.32;3.65;;;;;;;;;;4345424;33;20350;-69
2023/06/15 11:07:27;;;;;;;6.45;3.87;;;;;;;;;;4346087;33;20062;-69
2023/06/15 11:09:55;;;;;;;9.23;3.83;;;;;;;;;;4347853;33;20040;-70
2023/06/15 11:12:34;;;;;;;7.93;3.37;;;;;;;;;;4346425;33;20106;-69
2023/06/15 11:15:00;;;;;;;8.02;3.42;;;;;;;;;;4343960;33;20083;-70
2023/06/15 11:17:27;;;;;;;7.78;3.40;;;;;;;;;;4343495;33;20074;-68
2023/06/15 11:19:52;;;;;;;7.57;3.97;;;;;;;;;;4335652;33;20067;-70
2023/06/15 11:22:25;;;;;;;7.37;3.50;;;;;;;;;;4345011;33;20472;-69
2023/06/15 11:24:52;;;;;;;9.77;4.37;;;;;;;;;;4341338;33;20454;-67
2023/06/15 11:27:19;;;;;;;5.55;3.65;;;;;;;;;;4339153;33;20161;-71
2023/06/15 11:29:44;;;;;;;5.62;3.58;;;;;;;;;;4345103;33;20035;-68
2023/06/15 11:32:10;;;;;;;8.98;3.53;;;;;;;;;;4341660;33;20040;-69
2023/06/15 11:34:36;;;;;;;4.97;3.25;;;;;;;;;;4342924;33;20043;-69
2023/06/15 11:37:01;;;;;;;8.23;3.53;;;;;;;;;;4343786;33;20062;-70
2023/06/15 11:39:27;;;;;;;7.40;4.30;;;;;;;;;;4342951;33;20373;-70
2023/06/15 11:41:53;;;;;;;8.68;3.45;;;;;;;;;;4346553;33;20032;-68
2023/06/15 11:44:19;;;;;;;10.50;3.35;;;;;;;;;;4346489;32;20095;-69
2023/06/15 11:46:54;;;;;;;6.47;3.95;;;;;;;;;;4346732;33;20028;-69
2023/06/15 11:49:19;;;;;;;7.72;3.25;;;;;;;;;;4340103;33;20070;-69
2023/06/15 11:51:50;;;;;;;5.18;2.95;;;;;;;;;;4341826;33;20381;-69
2023/06/15 11:54:15;;;;;;;5.22;3.05;;;;;;;;;;4345095;33;20106;-69
2023/06/15 11:56:44;;;;;;;5.65;3.40;;;;;;;;;;4344503;33;20044;-69
2023/06/15 11:59:10;;;;;;;9.10;3.05;;;;;;;;;;4341951;33;20651;-70
2023/06/15 12:01:35;;;;;;;6.93;2.90;;;;;;;;;;4346150;33;20102;-67
2023/06/15 12:04:01;;;;;;;7.75;2.90;;;;;;;;;;4343079;33;20488;-70
2023/06/15 12:06:26;;;;;;;6.57;2.97;;;;;;;;;;4355545;32;20420;-69
2023/06/15 12:08:52;;;;;;;4.10;2.53;;;;;;;;;;4342235;33;20344;-69
2023/06/15 12:11:24;;;;;;;5.18;2.60;;;;;;;;;;4343395;33;20140;-69
2023/06/15 12:13:49;;;;;;;7.03;2.78;;;;;;;;;;4342898;33;20102;-69
2023/06/15 12:16:15;;;;;;;19.12;3.70;;;;;;;;;;4343189;33;20413;-69
2023/06/15 12:18:40;;;;;;;8.05;2.92;;;;;;;;;;4344949;33;20422;-69
2023/06/15 12:21:05;;;;;;;10.10;2.90;;;;;;;;;;4344699;33;20043;-68
2023/06/15 12:23:31;;;;;;;6.00;2.90;;;;;;;;;;4344788;33;20481;-70
2023/06/15 12:25:58;;;;;;;4.37;2.50;;;;;;;;;;4342230;33;20074;-69
2023/06/15 12:28:27;;;;;;;9.57;2.92;;;;;;;;;;4341673;33;20489;-69
2023/06/15 12:31:04;;;;;;;6.35;2.55;;;;;;;;;;4340978;33;20441;-69
2023/06/15 12:33:29;;;;;;;7.12;3.50;;;;;;;;;;4342969;33;20075;-70
2023/06/15 12:35:55;;;;;;;5.23;2.87;;;;;;;;;;4344284;33;20452;-69
2023/06/15 12:38:21;;;;;;;5.65;3.70;;;;;;;;;;4343162;33;20462;-70
2023/06/15 12:40:47;;;;;;;5.18;2.17;;;;;;;;;;4344188;33;20066;-69
2023/06/15 12:43:13;;;;;;;4.30;2.80;;;;;;;;;;4343788;33;20023;-70
2023/06/15 12:45:38;;;;;;;11.60;2.95;;;;;;;;;;4345135;33;20109;-69
2023/06/15 12:48:04;;;;;;;3.08;2.50;;;;;;;;;;4344731;33;20036;-68
2023/06/15 12:50:30;;;;;;;5.37;2.50;;;;;;;;;;4344055;33;20059;-68
2023/06/15 12:52:57;;;;;;;2.45;2.12;;;;;;;;;;4345071;33;20069;-69
2023/06/15 12:55:22;;;;;;;6.05;2.83;;;;;;;;;;4345832;33;20058;-70
2023/06/15 12:57:47;;;;;;;8.20;3.28;;;;;;;;;;4344553;33;20047;-69
2023/06/15 13:00:13;;;;;;;5.63;2.60;;;;;;;;;;4345521;33;20050;-69
2023/06/15 13:02:39;;;;;;;5.65;3.30;;;;;;;;;;4344135;33;20147;-67
2023/06/15 13:05:05;;;;;;;5.75;3.12;;;;;;;;;;4346355;33;20036;-69
2023/06/15 13:07:34;;;;;;;4.80;2.50;;;;;;;;;;4343633;33;20024;-70
2023/06/15 13:10:00;;;;;;;12.55;3.37;;;;;;;;;;4345840;33;20063;-70
2023/06/15 13:12:25;;;;;;;5.43;2.45;;;;;;;;;;4345687;33;20451;-69
2023/06/15 13:14:54;;;;;;;3.15;2.47;;;;;;;;;;4347587;33;20032;-69
2023/06/15 13:17:19;;;;;;;4.90;2.70;;;;;;;;;;4345181;33;20101;-69
2023/06/15 13:19:45;;;;;;;7.85;2.70;;;;;;;;;;4344726;33;20032;-68
2023/06/15 13:22:10;;;;;;;4.65;2.80;;;;;;;;;;4344693;33;20057;-69
2023/06/15 13:24:36;;;;;;;4.53;2.67;;;;;;;;;;4344443;33;20075;-68
2023/06/15 13:27:07;;;;;;;4.47;2.45;;;;;;;;;;4345687;33;20050;-69
2023/06/15 13:29:32;;;;;;;2.97;2.58;;;;;;;;;;4344959;33;20115;-70
2023/06/15 13:31:57;;;;;;;10.75;3.47;;;;;;;;;;4342691;33;20036;-68
2023/06/15 13:34:24;;;;;;;5.90;3.08;;;;;;;;;;4337895;33;20044;-69
2023/06/15 13:36:49;;;;;;;10.05;3.80;;;;;;;;;;4336843;33;20106;-69
2023/06/15 13:39:14;;;;;;;4.30;3.10;;;;;;;;;;4345210;33;20448;-70
2023/06/15 13:41:39;;;;;;;4.00;2.60;;;;;;;;;;4345947;33;20124;-68
2023/06/15 13:44:05;;;;;;;7.80;3.37;;;;;;;;;;4339448;33;20137;-68
2023/06/15 13:46:30;;;;;;;5.15;2.72;;;;;;;;;;4328701;33;20047;-69
2023/06/15 13:48:56;;;;;;;6.00;2.67;;;;;;;;;;4333945;33;20051;-70
2023/06/15 13:51:21;;;;;;;7.43;2.72;;;;;;;;;;4346043;33;20047;-70
2023/06/15 13:53:46;;;;;;;10.07;3.50;;;;;;;;;;4345918;33;20154;-69
2023/06/15 13:56:11;;;;;;;7.90;3.07;;;;;;;;;;4347083;33;20393;-70
2023/06/15 13:58:37;;;;;;;3.57;2.63;;;;;;;;;;4346949;33;20027;-70
2023/06/15 14:01:02;;;;;;;8.48;5.47;;;;;;;;;;4345746;33;20128;-69
2023/06/15 14:03:28;;;;;;;7.22;3.10;;;;;;;;;;4344534;33;20088;-69
2023/06/15 14:05:53;;;;;;;10.80;3.27;;;;;;;;;;4348972;32;20047;-68
2023/06/15 14:08:18;;;;;;;13.30;2.73;;;;;;;;;;4349140;32;20163;-69
2023/06/15 14:10:43;;;;;;;5.80;2.83;;;;;;;;;;4359829;33;20154;-69
2023/06/15 14:13:08;;;;;;;5.47;3.03;;;;;;;;;;4363040;32;20075;-68
2023/06/15 14:15:34;;;;;;;9.20;2.73;;;;;;;;;;4354872;33;20467;-69
2023/06/15 14:17:59;;;;;;;5.37;2.87;;;;;;;;;;4346674;33;20089;-69
2023/06/15 14:20:24;;;;;;;5.47;2.90;;;;;;;;;;4346958;33;20039;-69
2023/06/15 14:22:49;;;;;;;4.72;2.65;;;;;;;;;;4346499;32;20085;-69
2023/06/15 14:25:15;;;;;;;7.10;2.53;;;;;;;;;;4346407;33;20103;-69
2023/06/15 14:27:45;;;;;;;3.43;2.53;;;;;;;;;;4346999;32;20093;-70
2023/06/15 14:30:10;;;;;;;6.22;2.62;;;;;;;;;;4346288;32;20330;-70
2023/06/15 14:32:36;;;;;;;7.65;2.60;;;;;;;;;;4344932;33;20101;-69